Tropical Cyclones
[Index]
Main Index Home Page Stock Weather Photos Extreme Storms Discussion Storm News and Storm Chasing Reports Tropical Cyclones / Hurricanes / Typhoons Weather Data and Links Wild Fires / Bushfires Weather Observation Techniques Weather Picture Catalogue Tornado Pictures and Reports Stock Video Footage and DVDs for sale
Season 1996-1997 Tropical Cyclone ANTOINETTE Track Map
Season 1996-1997 Summaries: [BoM-AU] [JTWC-AU] [JTWC-SIO] [JTWC-SPAC] [JTWC-SH]
<<- Previous TC | JTWC 1996-1997 Season | Next TC ->>

click for intensity scale information  Lat/long Grid: Show Hide

 Date Labels: Show Hide

Joint Typhoon Warning Centre Cyclone Data

Name: ANTOINETTE

15 Oct 1996 00:00 UTC to 23 Oct 1996 06:00 UTC

    date/time    lat    long     hPa   cat  kts
1996-10-15 00    4.6    93.0                  15          
1996-10-15 06    5.0    92.5                  15          
1996-10-15 12    5.5    92.0                  20          
1996-10-15 18    5.9    91.5                  20          
1996-10-16 00    6.4    91.0                  25          
1996-10-16 06    7.0    90.5                  25          
1996-10-16 12    7.7    89.7                  30          
1996-10-16 18    8.4    88.5                  35          
1996-10-17 00    8.9    87.0            1     40          
1996-10-17 06    9.4    85.2            1     45          
1996-10-17 12    9.7    83.5            1     50          
1996-10-17 18   10.1    82.0            2     55          
1996-10-18 00   10.6    80.6            2     60          
1996-10-18 06   11.1    78.9            2     65          
1996-10-18 12   11.5    77.4            2     65          
1996-10-18 18   11.7    75.9            2     60          
1996-10-19 00   11.9    74.1            2     60          
1996-10-19 06   12.0    72.2            2     60          
1996-10-19 12   12.4    70.4            2     55          
1996-10-19 18   12.8    68.7            2     55          
1996-10-20 00   13.2    67.0            2     55          
1996-10-20 06   13.4    65.5            2     60          
1996-10-20 12   13.5    64.1            2     60          
1996-10-20 18   13.4    62.9            2     55          
1996-10-21 00   13.2    61.4            1     45          
1996-10-21 06   13.0    59.9            1     40          
1996-10-21 12   12.6    58.4                  35          
1996-10-21 18   12.2    57.0                  30          
1996-10-22 00   11.8    55.3                  25          
1996-10-22 06   11.4    53.3                  25          
1996-10-22 12   10.8    51.2                  25          
1996-10-22 18   10.4    49.2                  25          
1996-10-23 00   10.0    47.5                  25          
1996-10-23 06    9.5    45.8                  25          
Winds are 1-min average.

Tropical cyclone tracks developed by Michael Bath using data from the Joint Typhoon Warning Centre Best Tracks and Google Maps.


[Australian Severe Weather index] [Copyright Notice] [Email Contacts] [Search This Site] [Privacy Policy]
Document: tropical_cyclone_antoinette.htm Updated: 18 September 2016